ZA-0051 weather

Bells Bank Airport
Witputs, Northern Cape, South Africa

Public forecast

Using degrees Celsius for public forecast. Weather courtesy of forecast.io.

METAR (pilot weather report)

Closest report is Kimberley Airport, 46.6 nm (86.3 km) SSE. Retrieved 2019/09/22 21:00 UTC (19 minutes ago):

FAKM 222100Z AUTO 17019KT //// // ////// 12/M00 Q1021

TAF (pilot weather forecast)

Forecast is more than 12 hours old.

Closest forecast is Kimberley Airport, 46.6 nm (86.3 km) SSE. Retrieved 2018/10/29 07:06 UTC (11 months ago):

TAF TAF FAKM 290600Z 2907/2919 33015KT CAVOK TX38/2913Z TN28/2918Z